createdAt,value
2023-01-17T00:02:08.715Z,79.97
2023-01-17T00:04:54.883Z,80.03
2023-01-17T00:07:42.285Z,79.93
2023-01-17T00:10:15.903Z,79.89
2023-01-17T00:12:48.309Z,79.87
2023-01-17T00:15:16.748Z,80.00
2023-01-17T00:17:43.661Z,80.11
2023-01-17T00:20:32.673Z,80.13
2023-01-17T00:23:18.335Z,79.93
2023-01-17T00:26:03.809Z,80.00
2023-01-17T00:28:39.255Z,80.13
2023-01-17T00:31:07.633Z,80.13
2023-01-17T00:33:34.712Z,80.06
2023-01-17T00:36:02.272Z,80.11
2023-01-17T00:38:31.966Z,80.03
2023-01-17T00:41:07.232Z,80.07
2023-01-17T00:43:52.883Z,80.01
2023-01-17T00:46:39.417Z,80.10
2023-01-17T00:49:25.093Z,79.94
2023-01-17T00:52:10.731Z,80.09
2023-01-17T00:54:56.069Z,80.20
2023-01-17T00:57:41.884Z,80.20
2023-01-17T01:00:28.507Z,80.13
2023-01-17T01:03:13.755Z,80.17
2023-01-17T01:05:59.534Z,80.12
2023-01-17T01:08:48.815Z,80.07
2023-01-17T01:11:38.357Z,80.18
2023-01-17T01:14:25.984Z,80.24
2023-01-17T01:17:11.266Z,80.18
2023-01-17T01:19:56.645Z,80.16
2023-01-17T01:22:42.193Z,80.29
2023-01-17T01:25:30.838Z,80.30
2023-01-17T01:28:31.973Z,80.27
2023-01-17T01:31:21.992Z,80.37
2023-01-17T01:33:50.230Z,80.37
2023-01-17T01:36:17.067Z,80.45
2023-01-17T01:38:44.043Z,80.19
2023-01-17T01:41:10.878Z,80.18
2023-01-17T01:43:47.139Z,80.30
2023-01-17T01:46:39.284Z,80.30
2023-01-17T01:49:21.976Z,80.29
2023-01-17T01:51:59.983Z,80.13
2023-01-17T01:54:56.138Z,80.25
2023-01-17T01:57:26.787Z,80.24
2023-01-17T01:59:59.161Z,80.29
2023-01-17T02:02:28.461Z,80.31
2023-01-17T02:04:55.554Z,80.30
2023-01-17T02:07:31.208Z,80.41
2023-01-17T02:09:58.976Z,80.34
2023-01-17T02:12:26.539Z,80.32
2023-01-17T02:14:55.844Z,80.21
2023-01-17T02:17:45.718Z,80.39
2023-01-17T02:20:15.491Z,80.30
2023-01-17T02:22:56.807Z,80.25
2023-01-17T02:25:46.781Z,80.28
2023-01-17T02:28:39.802Z,80.28
2023-01-17T02:31:34.335Z,80.29
2023-01-17T02:34:18.470Z,80.27
2023-01-17T02:37:04.232Z,80.33
2023-01-17T02:39:39.670Z,80.35
2023-01-17T02:42:18.251Z,80.41
2023-01-17T02:44:45.387Z,80.35
2023-01-17T02:47:23.371Z,80.40
2023-01-17T02:49:53.485Z,80.40
2023-01-17T02:52:52.553Z,80.27
2023-01-17T02:56:16.607Z,80.32
2023-01-17T02:59:04.073Z,80.42
2023-01-17T03:01:49.823Z,80.43
2023-01-17T03:04:37.525Z,80.44
2023-01-17T03:07:11.344Z,80.49
2023-01-17T03:09:40.901Z,80.38
2023-01-17T03:12:10.044Z,80.58
2023-01-17T03:14:36.995Z,80.44
2023-01-17T03:17:09.387Z,80.56
2023-01-17T03:19:36.383Z,80.68
2023-01-17T03:22:03.450Z,80.61
2023-01-17T03:24:30.285Z,80.62
2023-01-17T03:26:57.133Z,80.69
2023-01-17T03:29:23.978Z,80.69
2023-01-17T03:31:50.825Z,80.75
2023-01-17T03:34:17.680Z,80.77
2023-01-17T03:36:44.538Z,80.69
2023-01-17T03:39:11.904Z,80.73
2023-01-17T03:41:38.833Z,80.76
2023-01-17T03:44:05.989Z,80.79
2023-01-17T03:46:33.152Z,80.78
2023-01-17T03:48:59.992Z,80.75
2023-01-17T03:51:27.421Z,80.76
2023-01-17T03:53:54.403Z,80.77
2023-01-17T03:56:21.362Z,80.76
2023-01-17T03:58:48.239Z,80.75
2023-01-17T04:01:15.137Z,80.74
2023-01-17T04:03:42.108Z,80.83
2023-01-17T04:06:14.681Z,80.72
2023-01-17T04:08:42.044Z,80.76
2023-01-17T04:11:08.894Z,80.76
2023-01-17T04:13:35.845Z,80.76
2023-01-17T04:16:03.003Z,80.77
2023-01-17T04:18:29.947Z,80.77
2023-01-17T04:20:56.901Z,80.73
2023-01-17T04:23:23.724Z,80.83
2023-01-17T04:25:50.613Z,80.74
2023-01-17T04:28:17.550Z,80.71
2023-01-17T04:30:44.430Z,80.81
2023-01-17T04:33:11.253Z,80.77
2023-01-17T04:35:38.190Z,80.80
2023-01-17T04:38:04.999Z,80.93
2023-01-17T04:40:31.856Z,80.86
2023-01-17T04:42:59.665Z,80.83
2023-01-17T04:45:26.727Z,80.78
2023-01-17T04:47:53.670Z,80.92
2023-01-17T04:50:20.612Z,80.87
2023-01-17T04:52:47.371Z,80.94
2023-01-17T04:55:14.419Z,80.94
2023-01-17T04:57:41.368Z,80.91
2023-01-17T05:00:09.156Z,80.86
2023-01-17T05:02:36.030Z,80.78
2023-01-17T05:05:02.866Z,80.78
2023-01-17T05:07:29.882Z,80.90
2023-01-17T05:09:56.834Z,80.82
2023-01-17T05:12:23.694Z,80.67
2023-01-17T05:14:50.514Z,80.70
2023-01-17T05:17:17.379Z,80.77
2023-01-17T05:19:44.226Z,80.65
2023-01-17T05:22:15.639Z,80.76
2023-01-17T05:24:44.468Z,80.66
2023-01-17T05:27:12.852Z,80.79
2023-01-17T05:29:39.905Z,80.86
2023-01-17T05:32:07.218Z,80.89
2023-01-17T05:34:35.274Z,80.84
2023-01-17T05:37:02.230Z,80.87
2023-01-17T05:39:31.250Z,80.81
2023-01-17T05:41:59.435Z,80.95
2023-01-17T05:44:28.961Z,80.87
2023-01-17T05:46:56.400Z,80.88
2023-01-17T05:49:23.501Z,80.89
2023-01-17T05:51:51.198Z,80.82
2023-01-17T05:54:19.031Z,80.91
2023-01-17T05:56:45.979Z,80.80
2023-01-17T05:59:14.251Z,80.83
2023-01-17T06:01:41.415Z,80.80
2023-01-17T06:04:08.497Z,80.87
2023-01-17T06:06:35.426Z,80.73
2023-01-17T06:09:02.478Z,80.79
2023-01-17T06:11:29.320Z,80.69
2023-01-17T06:13:56.173Z,80.62
2023-01-17T06:16:23.283Z,80.80
2023-01-17T06:18:50.277Z,80.85
2023-01-17T06:21:17.184Z,80.86
2023-01-17T06:23:44.084Z,80.75
2023-01-17T06:26:11.434Z,80.77
2023-01-17T06:28:38.285Z,80.87
2023-01-17T06:31:09.354Z,80.82
2023-01-17T06:33:37.170Z,80.93
2023-01-17T06:36:04.669Z,80.86
2023-01-17T06:38:31.615Z,80.83
2023-01-17T06:41:00.665Z,80.96
2023-01-17T06:43:32.795Z,80.84
2023-01-17T06:46:01.088Z,80.80
2023-01-17T06:48:28.236Z,80.87
2023-01-17T06:50:57.220Z,80.82
2023-01-17T06:53:24.264Z,80.63
2023-01-17T06:55:52.754Z,80.70
2023-01-17T06:58:19.709Z,80.68
2023-01-17T07:00:47.150Z,80.74
2023-01-17T07:03:26.507Z,80.67
2023-01-17T07:05:53.680Z,80.84
2023-01-17T07:08:20.905Z,80.95
2023-01-17T07:10:48.969Z,81.19
2023-01-17T07:13:16.155Z,81.51
2023-01-17T07:15:43.147Z,81.69
2023-01-17T07:18:10.051Z,81.68
2023-01-17T07:20:38.567Z,81.86
2023-01-17T07:23:06.891Z,81.67
2023-01-17T07:25:33.759Z,81.44
2023-01-17T07:28:00.723Z,81.78
2023-01-17T07:30:30.014Z,81.99
2023-01-17T07:32:57.276Z,82.11
2023-01-17T07:35:27.022Z,82.27
2023-01-17T07:37:55.072Z,81.74
2023-01-17T07:40:22.843Z,81.30
2023-01-17T07:42:50.102Z,81.31
2023-01-17T07:45:17.860Z,81.14
2023-01-17T07:47:45.197Z,80.97
2023-01-17T07:50:13.846Z,80.55
2023-01-17T07:52:40.979Z,80.28
2023-01-17T07:55:09.158Z,79.94
2023-01-17T07:57:36.301Z,79.84
2023-01-17T08:00:04.697Z,80.32
2023-01-17T08:02:39.097Z,80.18
2023-01-17T08:05:06.458Z,79.31
2023-01-17T08:07:33.414Z,79.01
2023-01-17T08:10:01.529Z,78.99
2023-01-17T08:12:29.696Z,79.24
2023-01-17T08:14:56.829Z,79.06
2023-01-17T08:17:23.894Z,78.35
2023-01-17T08:19:52.371Z,78.45
2023-01-17T08:22:19.334Z,78.21
2023-01-17T08:24:46.172Z,77.82
2023-01-17T08:27:13.113Z,77.74
2023-01-17T08:29:43.129Z,77.55
2023-01-17T08:32:09.881Z,76.70
2023-01-17T08:34:36.736Z,77.50
2023-01-17T08:37:03.676Z,77.82
2023-01-17T08:39:30.632Z,77.00
2023-01-17T08:41:57.794Z,76.99
2023-01-17T08:44:25.262Z,76.79
2023-01-17T08:46:52.195Z,76.16
2023-01-17T08:49:19.353Z,75.08
2023-01-17T08:51:46.401Z,75.27
2023-01-17T08:54:15.502Z,75.77
2023-01-17T08:56:47.155Z,76.10
2023-01-17T08:59:14.214Z,76.04
2023-01-17T09:01:42.200Z,76.13
2023-01-17T09:04:10.124Z,76.44
2023-01-17T09:06:39.475Z,76.54
2023-01-17T09:09:07.551Z,76.17
2023-01-17T09:11:35.103Z,76.09
2023-01-17T09:14:02.158Z,76.46
2023-01-17T09:16:29.752Z,76.68
2023-01-17T09:18:58.633Z,76.75
2023-01-17T09:21:27.102Z,77.14
2023-01-17T09:23:55.309Z,77.25
2023-01-17T09:26:29.264Z,77.10
2023-01-17T09:28:56.668Z,77.11
2023-01-17T09:31:24.014Z,77.04
2023-01-17T09:33:52.108Z,77.12
2023-01-17T09:36:19.177Z,77.04
2023-01-17T09:38:47.139Z,77.12
2023-01-17T09:41:27.933Z,77.10
2023-01-17T09:44:28.302Z,77.11
2023-01-17T09:47:07.780Z,77.31
2023-01-17T09:49:43.993Z,77.41
2023-01-17T09:52:17.809Z,77.36
2023-01-17T09:54:48.205Z,77.38
2023-01-17T09:57:27.155Z,77.41
2023-01-17T10:00:03.173Z,77.43
2023-01-17T10:02:55.657Z,77.57
2023-01-17T10:05:25.576Z,77.59
2023-01-17T10:08:16.772Z,77.52
2023-01-17T10:11:10.026Z,77.64
2023-01-17T10:14:03.169Z,77.78
2023-01-17T10:16:49.998Z,77.94
2023-01-17T10:19:46.395Z,77.95
2023-01-17T10:22:35.151Z,77.86
2023-01-17T10:25:20.518Z,77.91
2023-01-17T10:27:59.439Z,77.92
2023-01-17T10:30:34.159Z,77.92
2023-01-17T10:33:16.666Z,77.99
2023-01-17T10:35:55.590Z,77.98
2023-01-17T10:38:28.989Z,77.99
2023-01-17T10:41:01.058Z,77.97
2023-01-17T10:43:36.810Z,77.79
2023-01-17T10:46:03.801Z,77.87
2023-01-17T10:48:44.129Z,77.92
2023-01-17T10:51:29.385Z,77.97
2023-01-17T10:54:21.505Z,77.88
2023-01-17T10:56:48.893Z,78.04
2023-01-17T10:59:27.898Z,77.97
2023-01-17T11:01:55.001Z,77.85
2023-01-17T11:04:26.500Z,77.78
2023-01-17T11:07:21.577Z,77.74
2023-01-17T11:09:51.532Z,77.67
2023-01-17T11:12:33.926Z,77.75
2023-01-17T11:15:10.176Z,77.76
2023-01-17T11:18:15.056Z,77.79
2023-01-17T11:20:46.262Z,77.87
2023-01-17T11:23:21.297Z,77.88
2023-01-17T11:26:10.744Z,77.92
2023-01-17T11:28:40.601Z,77.79
2023-01-17T11:31:30.843Z,77.85
2023-01-17T11:34:32.381Z,77.80
2023-01-17T11:37:17.039Z,77.89
2023-01-17T11:39:44.827Z,77.95
2023-01-17T11:42:32.118Z,77.79
2023-01-17T11:45:26.299Z,77.84
2023-01-17T11:48:08.385Z,77.78
2023-01-17T11:50:41.582Z,77.87
2023-01-17T11:53:31.048Z,77.80
2023-01-17T11:56:06.087Z,77.72
2023-01-17T11:58:36.046Z,77.73
2023-01-17T12:01:11.989Z,77.80
2023-01-17T12:04:01.121Z,77.80
2023-01-17T12:06:57.916Z,77.85
2023-01-17T12:09:48.447Z,77.67
2023-01-17T12:13:13.513Z,77.70
2023-01-17T12:16:33.255Z,77.70
2023-01-17T12:19:32.651Z,77.65
2023-01-17T12:22:29.374Z,77.66
2023-01-17T12:25:17.620Z,77.66
2023-01-17T12:28:22.139Z,77.64
2023-01-17T12:31:01.289Z,77.71
2023-01-17T12:33:37.490Z,77.75
2023-01-17T12:36:34.312Z,77.83
2023-01-17T12:39:08.354Z,77.88
2023-01-17T12:41:56.690Z,77.82
2023-01-17T12:44:34.593Z,77.77
2023-01-17T12:47:04.867Z,77.76
2023-01-17T12:49:49.688Z,77.64
2023-01-17T12:52:28.924Z,77.61
2023-01-17T12:55:02.531Z,77.79
2023-01-17T12:57:38.144Z,77.64
2023-01-17T13:00:13.789Z,77.70
2023-01-17T13:02:59.281Z,77.77
2023-01-17T13:05:42.208Z,77.81
2023-01-17T13:08:18.364Z,77.79
2023-01-17T13:10:59.440Z,77.75
2023-01-17T13:13:28.333Z,77.97
2023-01-17T13:16:05.366Z,77.87
2023-01-17T13:18:33.589Z,77.86
2023-01-17T13:21:08.834Z,77.90
2023-01-17T13:23:35.783Z,78.02
2023-01-17T13:26:06.929Z,78.25
2023-01-17T13:29:03.353Z,78.47
2023-01-17T13:31:52.061Z,78.72
2023-01-17T13:34:28.252Z,78.93
2023-01-17T13:37:21.195Z,78.77
2023-01-17T13:40:19.676Z,78.50
2023-01-17T13:42:57.978Z,78.14
2023-01-17T13:45:29.062Z,77.99
2023-01-17T13:48:13.065Z,77.47
2023-01-17T13:50:55.795Z,77.08
2023-01-17T13:53:34.796Z,76.97
2023-01-17T13:56:21.602Z,76.27
2023-01-17T13:58:50.657Z,76.03
2023-01-17T14:01:23.990Z,76.19
2023-01-17T14:03:53.563Z,76.20
2023-01-17T14:06:38.779Z,75.90
2023-01-17T14:09:08.786Z,75.39
2023-01-17T14:11:36.361Z,75.63
2023-01-17T14:14:35.855Z,75.80
2023-01-17T14:17:15.702Z,75.79
2023-01-17T14:19:46.737Z,76.11
2023-01-17T14:22:30.160Z,76.18
2023-01-17T14:25:19.752Z,76.07
2023-01-17T14:27:57.520Z,75.89
2023-01-17T14:30:33.590Z,75.45
2023-01-17T14:33:04.947Z,75.31
2023-01-17T14:35:34.636Z,75.15
2023-01-17T14:38:03.304Z,75.23
2023-01-17T14:40:32.905Z,75.28
2023-01-17T14:43:02.068Z,75.45
2023-01-17T14:45:35.372Z,75.58
2023-01-17T14:48:07.681Z,75.63
2023-01-17T14:50:44.091Z,75.71
2023-01-17T14:53:14.112Z,75.39
2023-01-17T14:55:58.069Z,75.15
2023-01-17T14:58:32.685Z,75.14
2023-01-17T15:01:14.923Z,75.24
2023-01-17T15:03:54.236Z,75.46
2023-01-17T15:06:25.047Z,75.72
2023-01-17T15:08:55.284Z,75.84
2023-01-17T15:11:28.048Z,76.02
2023-01-17T15:14:02.373Z,76.23
2023-01-17T15:16:38.287Z,76.23
2023-01-17T15:19:15.544Z,76.16
2023-01-17T15:21:44.277Z,76.17
2023-01-17T15:24:27.834Z,76.18
2023-01-17T15:26:55.132Z,76.30
2023-01-17T15:29:31.989Z,76.44
2023-01-17T15:32:01.785Z,76.53
2023-01-17T15:34:39.274Z,76.62
2023-01-17T15:37:21.796Z,76.56
2023-01-17T15:39:49.173Z,76.48
2023-01-17T15:42:26.441Z,76.59
2023-01-17T15:45:01.073Z,76.62
2023-01-17T15:47:46.806Z,76.67
2023-01-17T15:50:19.941Z,76.73
2023-01-17T15:52:52.001Z,76.70
2023-01-17T15:55:29.592Z,76.70
2023-01-17T15:57:57.030Z,76.64
2023-01-17T16:00:45.614Z,76.68
2023-01-17T16:03:32.003Z,76.77
2023-01-17T16:06:01.086Z,76.82
2023-01-17T16:08:38.882Z,76.79
2023-01-17T16:11:08.095Z,76.66
2023-01-17T16:13:38.876Z,76.42
2023-01-17T16:16:11.004Z,76.31
2023-01-17T16:18:38.506Z,76.32
2023-01-17T16:21:27.318Z,76.28
2023-01-17T16:23:55.074Z,76.33
2023-01-17T16:26:22.330Z,76.52
2023-01-17T16:28:49.705Z,76.51
2023-01-17T16:31:18.017Z,76.43
2023-01-17T16:33:46.195Z,76.46
2023-01-17T16:36:16.682Z,76.55
2023-01-17T16:38:45.600Z,76.43
2023-01-17T16:41:13.029Z,76.41
2023-01-17T16:43:40.097Z,76.47
2023-01-17T16:46:07.809Z,76.50
2023-01-17T16:48:37.947Z,76.45
2023-01-17T16:51:06.921Z,76.50
2023-01-17T16:53:35.912Z,76.67
2023-01-17T16:56:13.748Z,76.66
2023-01-17T16:58:41.464Z,76.55
2023-01-17T17:01:17.525Z,76.56
2023-01-17T17:03:45.488Z,76.58
2023-01-17T17:06:13.351Z,76.58
2023-01-17T17:08:40.399Z,76.60
2023-01-17T17:11:16.575Z,76.65
2023-01-17T17:13:45.774Z,76.76
2023-01-17T17:16:26.747Z,76.83
2023-01-17T17:18:57.079Z,76.84
2023-01-17T17:21:24.648Z,76.80
2023-01-17T17:23:59.569Z,76.88
2023-01-17T17:26:31.218Z,76.88
2023-01-17T17:28:58.469Z,76.89
2023-01-17T17:31:25.468Z,76.87
2023-01-17T17:33:53.193Z,76.90
2023-01-17T17:36:20.155Z,77.00
2023-01-17T17:38:53.759Z,76.99
2023-01-17T17:41:23.845Z,76.91
2023-01-17T17:43:52.472Z,77.07
2023-01-17T17:46:21.976Z,77.08
2023-01-17T17:48:50.147Z,77.06
2023-01-17T17:51:26.168Z,77.00
2023-01-17T17:54:00.984Z,77.14
2023-01-17T17:56:30.654Z,77.20
2023-01-17T17:58:58.819Z,77.18
2023-01-17T18:01:26.466Z,77.25
2023-01-17T18:03:57.038Z,77.26
2023-01-17T18:06:24.179Z,77.17
2023-01-17T18:08:52.383Z,77.30
2023-01-17T18:11:26.237Z,77.33
2023-01-17T18:13:55.372Z,77.17
2023-01-17T18:16:28.492Z,77.40
2023-01-17T18:18:57.700Z,77.46
2023-01-17T18:21:27.719Z,77.44
2023-01-17T18:24:00.481Z,77.19
2023-01-17T18:26:33.446Z,77.35
2023-01-17T18:29:02.305Z,77.18
2023-01-17T18:31:32.121Z,77.33
2023-01-17T18:33:59.799Z,77.40
2023-01-17T18:36:30.372Z,77.31
2023-01-17T18:38:57.839Z,77.27
2023-01-17T18:41:27.802Z,77.26
2023-01-17T18:43:58.287Z,77.32
2023-01-17T18:46:26.692Z,77.41
2023-01-17T18:48:57.331Z,77.40
2023-01-17T18:51:24.654Z,77.30
2023-01-17T18:53:53.251Z,77.45
2023-01-17T18:56:22.141Z,77.56
2023-01-17T18:58:50.661Z,77.55
2023-01-17T19:01:22.871Z,77.61
2023-01-17T19:03:52.810Z,77.72
2023-01-17T19:06:23.396Z,77.65
2023-01-17T19:08:52.073Z,77.64
2023-01-17T19:11:21.105Z,77.65
2023-01-17T19:13:48.995Z,77.69
2023-01-17T19:16:24.511Z,77.63
2023-01-17T19:18:52.952Z,77.65
2023-01-17T19:21:22.739Z,77.55
2023-01-17T19:23:50.624Z,77.70
2023-01-17T19:26:20.082Z,77.71
2023-01-17T19:28:49.088Z,77.60
2023-01-17T19:31:20.672Z,77.65
2023-01-17T19:33:49.329Z,77.63
2023-01-17T19:36:22.052Z,77.63
2023-01-17T19:39:03.407Z,77.66
2023-01-17T19:41:31.433Z,77.73
2023-01-17T19:44:00.510Z,77.71
2023-01-17T19:46:28.106Z,77.68
2023-01-17T19:48:56.460Z,77.71
2023-01-17T19:51:24.416Z,77.75
2023-01-17T19:53:51.785Z,77.74
2023-01-17T19:56:21.395Z,77.75
2023-01-17T19:58:48.965Z,77.86
2023-01-17T20:01:17.691Z,77.86
2023-01-17T20:03:46.251Z,77.81
2023-01-17T20:06:16.175Z,77.86
2023-01-17T20:08:43.977Z,77.90
2023-01-17T20:11:15.114Z,77.86
2023-01-17T20:13:42.443Z,77.91
2023-01-17T20:16:12.413Z,77.94
2023-01-17T20:18:39.915Z,77.87
2023-01-17T20:21:20.174Z,77.95
2023-01-17T20:23:48.669Z,77.94
2023-01-17T20:26:19.005Z,77.96
2023-01-17T20:28:47.900Z,77.93
2023-01-17T20:31:17.592Z,77.85
2023-01-17T20:33:47.231Z,78.01
2023-01-17T20:36:16.664Z,78.05
2023-01-17T20:38:44.866Z,78.01
2023-01-17T20:41:16.926Z,78.22
2023-01-17T20:43:46.118Z,78.15
2023-01-17T20:46:14.193Z,78.12
2023-01-17T20:48:55.520Z,78.11
2023-01-17T20:51:25.665Z,78.02
2023-01-17T20:53:56.251Z,77.94
2023-01-17T20:56:24.550Z,77.88
2023-01-17T20:58:52.938Z,78.06
2023-01-17T21:01:22.008Z,78.09
2023-01-17T21:03:51.734Z,78.06
2023-01-17T21:06:20.861Z,78.10
2023-01-17T21:08:49.238Z,78.11
2023-01-17T21:11:19.988Z,78.04
2023-01-17T21:13:48.959Z,78.03
2023-01-17T21:16:17.990Z,78.16
2023-01-17T21:18:52.001Z,78.19
2023-01-17T21:21:25.465Z,78.24
2023-01-17T21:23:54.982Z,78.26
2023-01-17T21:26:28.151Z,78.27
2023-01-17T21:28:55.872Z,78.23
2023-01-17T21:31:26.620Z,78.32
2023-01-17T21:33:59.380Z,78.28
2023-01-17T21:36:29.083Z,78.28
2023-01-17T21:38:58.192Z,78.29
2023-01-17T21:41:28.838Z,78.28
2023-01-17T21:43:58.011Z,78.29
2023-01-17T21:46:26.636Z,78.35
2023-01-17T21:48:54.484Z,78.37
2023-01-17T21:51:22.246Z,78.27
2023-01-17T21:53:49.501Z,78.20
2023-01-17T21:56:35.901Z,78.16
2023-01-17T21:59:03.158Z,78.20
2023-01-17T22:01:33.439Z,78.19
2023-01-17T22:04:03.221Z,78.31
2023-01-17T22:06:34.766Z,78.22
2023-01-17T22:09:04.259Z,78.17
2023-01-17T22:11:32.096Z,78.42
2023-01-17T22:13:59.495Z,78.25
2023-01-17T22:16:26.744Z,78.30
2023-01-17T22:18:54.837Z,78.26
2023-01-17T22:21:28.438Z,78.37
2023-01-17T22:23:57.940Z,78.42
2023-01-17T22:26:27.710Z,78.36
2023-01-17T22:28:55.124Z,78.49
2023-01-17T22:31:25.738Z,78.56
2023-01-17T22:34:01.035Z,78.34
2023-01-17T22:36:29.839Z,78.48
2023-01-17T22:38:57.145Z,78.31
2023-01-17T22:41:29.876Z,78.35
2023-01-17T22:43:59.032Z,78.38
2023-01-17T22:46:30.429Z,78.36
2023-01-17T22:48:58.139Z,78.42
2023-01-17T22:51:27.345Z,78.43
2023-01-17T22:53:56.825Z,78.53
2023-01-17T22:56:29.529Z,78.53
2023-01-17T22:58:57.821Z,78.40
2023-01-17T23:01:27.737Z,78.34
2023-01-17T23:03:56.175Z,78.48
2023-01-17T23:06:27.469Z,78.49
2023-01-17T23:08:56.971Z,78.43
2023-01-17T23:11:47.570Z,78.38
2023-01-17T23:14:25.567Z,78.50
2023-01-17T23:17:14.929Z,78.49
2023-01-17T23:19:49.763Z,78.64
2023-01-17T23:22:30.106Z,78.50
2023-01-17T23:24:59.516Z,78.63
2023-01-17T23:27:46.938Z,78.60
2023-01-17T23:30:26.168Z,78.76
2023-01-17T23:32:55.394Z,78.70
2023-01-17T23:35:25.841Z,78.57
2023-01-17T23:38:11.582Z,78.59
2023-01-17T23:40:39.589Z,78.75
2023-01-17T23:43:25.356Z,78.78
2023-01-17T23:45:54.124Z,78.80
2023-01-17T23:48:24.011Z,78.80
2023-01-17T23:50:51.299Z,78.86
2023-01-17T23:53:23.196Z,78.82
2023-01-17T23:55:52.462Z,78.87
2023-01-17T23:58:21.877Z,78.73
